createdAt,value
2018-05-23T00:01:57.707Z,5.60
2018-05-23T00:04:25.108Z,5.80
2018-05-23T00:06:52.539Z,6.10
2018-05-23T00:09:19.925Z,5.80
2018-05-23T00:11:47.299Z,5.47
2018-05-23T00:14:14.683Z,6.23
2018-05-23T00:16:42.881Z,6.00
2018-05-23T00:19:10.279Z,5.37
2018-05-23T00:21:37.652Z,5.80
2018-05-23T00:24:05.031Z,5.00
2018-05-23T00:26:32.433Z,5.37
2018-05-23T00:28:59.895Z,4.50
2018-05-23T00:31:27.268Z,5.10
2018-05-23T00:33:54.665Z,4.20
2018-05-23T00:36:22.053Z,5.70
2018-05-23T00:38:49.439Z,5.90
2018-05-23T00:41:16.830Z,5.03
2018-05-23T00:43:44.229Z,5.70
2018-05-23T00:46:11.625Z,5.10
2018-05-23T00:48:39.022Z,5.00
2018-05-23T00:51:06.411Z,5.60
2018-05-23T00:53:33.795Z,6.27
2018-05-23T00:56:01.172Z,5.00
2018-05-23T00:58:28.586Z,5.83
2018-05-23T01:00:55.958Z,5.37
2018-05-23T01:03:23.358Z,5.43
2018-05-23T01:05:50.752Z,6.27
2018-05-23T01:08:18.149Z,4.50
2018-05-23T01:10:45.552Z,5.47
2018-05-23T01:13:12.933Z,5.63
2018-05-23T01:15:40.315Z,5.03
2018-05-23T01:18:07.715Z,5.43
2018-05-23T01:20:35.106Z,5.40
2018-05-23T01:23:02.495Z,5.87
2018-05-23T01:25:29.904Z,5.00
2018-05-23T01:27:57.287Z,5.83
2018-05-23T01:30:24.680Z,4.80
2018-05-23T01:32:52.079Z,5.80
2018-05-23T01:35:19.463Z,5.20
2018-05-23T01:37:46.841Z,4.93
2018-05-23T01:40:14.232Z,4.60
2018-05-23T01:42:41.629Z,5.60
2018-05-23T01:45:09.039Z,6.30
2018-05-23T01:47:36.412Z,4.90
2018-05-23T01:50:03.805Z,6.03
2018-05-23T01:52:31.179Z,6.10
2018-05-23T01:54:58.576Z,6.00
2018-05-23T01:57:25.968Z,5.83
2018-05-23T01:59:53.392Z,6.80
2018-05-23T02:02:20.778Z,6.17
2018-05-23T02:04:48.167Z,6.30
2018-05-23T02:07:15.554Z,7.03
2018-05-23T02:09:42.943Z,6.30
2018-05-23T02:12:10.325Z,5.97
2018-05-23T02:14:37.768Z,5.43
2018-05-23T02:17:05.157Z,4.87
2018-05-23T02:19:32.558Z,6.87
2018-05-23T02:22:00.885Z,5.70
2018-05-23T02:24:28.293Z,5.67
2018-05-23T02:26:55.684Z,6.30
2018-05-23T02:29:23.080Z,6.30
2018-05-23T02:31:50.482Z,5.03
2018-05-23T02:34:17.856Z,4.90
2018-05-23T02:36:45.250Z,6.20
2018-05-23T02:39:12.659Z,5.50
2018-05-23T02:41:40.068Z,6.30
2018-05-23T02:44:07.461Z,7.03
2018-05-23T02:46:34.864Z,6.10
2018-05-23T02:49:02.267Z,6.07
2018-05-23T02:51:29.636Z,7.10
2018-05-23T02:53:57.035Z,6.37
2018-05-23T02:56:24.419Z,5.40
2018-05-23T02:58:51.814Z,6.03
2018-05-23T03:01:19.204Z,5.40
2018-05-23T03:03:46.602Z,5.63
2018-05-23T03:06:13.972Z,5.30
2018-05-23T03:08:41.375Z,6.10
2018-05-23T03:11:08.782Z,5.50
2018-05-23T03:13:36.160Z,5.57
2018-05-23T03:16:03.561Z,6.50
2018-05-23T03:18:30.949Z,6.00
2018-05-23T03:20:58.344Z,5.27
2018-05-23T03:23:25.751Z,5.60
2018-05-23T03:25:53.168Z,5.13
2018-05-23T03:28:20.529Z,5.60
2018-05-23T03:30:47.920Z,5.37
2018-05-23T03:33:15.304Z,5.30
2018-05-23T03:35:42.705Z,5.47
2018-05-23T03:38:10.086Z,5.40
2018-05-23T03:40:37.480Z,4.50
2018-05-23T03:43:04.843Z,5.97
2018-05-23T03:45:32.245Z,5.47
2018-05-23T03:47:59.619Z,5.77
2018-05-23T03:50:27.007Z,5.57
2018-05-23T03:52:54.403Z,6.00
2018-05-23T03:55:21.867Z,6.60
2018-05-23T03:57:49.168Z,5.87
2018-05-23T04:00:28.112Z,5.70
2018-05-23T04:03:07.121Z,5.90
2018-05-23T04:05:46.334Z,5.57
2018-05-23T04:08:13.712Z,5.60
2018-05-23T04:10:41.137Z,5.90
2018-05-23T04:13:08.501Z,5.20
2018-05-23T04:15:35.911Z,6.30
2018-05-23T04:18:03.313Z,5.70
2018-05-23T04:20:30.724Z,6.10
2018-05-23T04:22:58.109Z,6.17
2018-05-23T04:25:25.502Z,6.00
2018-05-23T04:27:52.877Z,5.10
2018-05-23T04:30:20.264Z,5.93
2018-05-23T04:32:47.648Z,5.30
2018-05-23T04:35:15.038Z,5.20
2018-05-23T04:37:42.461Z,6.43
2018-05-23T04:40:09.848Z,5.93
2018-05-23T04:42:37.232Z,6.10
2018-05-23T04:45:04.619Z,6.90
2018-05-23T04:47:32.001Z,7.50
2018-05-23T04:49:59.380Z,7.80
2018-05-23T04:52:26.756Z,7.20
2018-05-23T04:54:54.149Z,7.10
2018-05-23T04:57:21.537Z,7.40
2018-05-23T04:59:48.919Z,6.70
2018-05-23T05:02:16.309Z,6.90
2018-05-23T05:04:43.713Z,6.70
2018-05-23T05:07:11.080Z,7.00
2018-05-23T05:09:38.477Z,6.90
2018-05-23T05:12:05.851Z,6.40
2018-05-23T05:14:33.257Z,6.87
2018-05-23T05:17:00.659Z,8.00
2018-05-23T05:19:28.052Z,8.43
2018-05-23T05:21:55.441Z,8.20
2018-05-23T05:24:22.819Z,7.57
2018-05-23T05:26:50.208Z,8.67
2018-05-23T05:29:17.614Z,7.70
2018-05-23T05:31:45.045Z,7.47
2018-05-23T05:34:12.411Z,7.23
2018-05-23T05:36:39.810Z,8.17
2018-05-23T05:39:07.208Z,7.90
2018-05-23T05:41:34.613Z,8.40
2018-05-23T05:44:02.014Z,8.23
2018-05-23T05:46:29.403Z,8.17
2018-05-23T05:48:57.703Z,8.13
2018-05-23T05:51:25.089Z,8.77
2018-05-23T05:53:53.669Z,8.00
2018-05-23T05:56:21.094Z,7.30
2018-05-23T05:58:48.470Z,7.40
2018-05-23T06:01:15.874Z,7.20
2018-05-23T06:03:43.255Z,7.13
2018-05-23T06:06:10.653Z,7.20
2018-05-23T06:08:38.027Z,7.20
2018-05-23T06:11:05.411Z,7.80
2018-05-23T06:13:32.798Z,7.87
2018-05-23T06:16:00.187Z,8.17
2018-05-23T06:18:27.576Z,7.60
2018-05-23T06:20:55.036Z,8.13
2018-05-23T06:23:22.495Z,8.40
2018-05-23T06:25:49.880Z,6.87
2018-05-23T06:28:17.267Z,7.77
2018-05-23T06:30:44.659Z,7.77
2018-05-23T06:33:12.042Z,7.27
2018-05-23T06:35:39.436Z,6.80
2018-05-23T06:38:06.811Z,8.13
2018-05-23T06:40:34.202Z,7.07
2018-05-23T06:43:01.609Z,7.00
2018-05-23T06:45:29.003Z,6.83
2018-05-23T06:47:56.434Z,7.10
2018-05-23T06:50:23.844Z,7.20
2018-05-23T06:52:51.233Z,7.00
2018-05-23T06:55:18.621Z,7.33
2018-05-23T06:57:46.002Z,8.30
2018-05-23T07:00:13.407Z,8.00
2018-05-23T07:02:40.779Z,7.70
2018-05-23T07:05:08.191Z,7.20
2018-05-23T07:07:35.580Z,7.80
2018-05-23T07:10:02.959Z,7.63
2018-05-23T07:12:30.348Z,7.40
2018-05-23T07:14:57.730Z,7.10
2018-05-23T07:17:25.125Z,7.93
2018-05-23T07:19:52.502Z,7.90
2018-05-23T07:22:19.958Z,7.00
2018-05-23T07:24:47.382Z,6.67
2018-05-23T07:27:14.812Z,7.83
2018-05-23T07:29:42.201Z,7.37
2018-05-23T07:32:09.586Z,7.90
2018-05-23T07:34:36.968Z,6.70
2018-05-23T07:37:04.372Z,7.50
2018-05-23T07:39:31.752Z,7.17
2018-05-23T07:41:59.209Z,8.23
2018-05-23T07:44:26.582Z,7.50
2018-05-23T07:46:53.971Z,7.97
2018-05-23T07:49:21.353Z,7.10
2018-05-23T07:51:48.766Z,7.03
2018-05-23T07:54:16.145Z,7.20
2018-05-23T07:56:43.580Z,7.00
2018-05-23T07:59:10.939Z,6.67
2018-05-23T08:01:38.323Z,6.80
2018-05-23T08:04:05.782Z,7.67
2018-05-23T08:06:33.159Z,7.20
2018-05-23T08:09:00.553Z,8.27
2018-05-23T08:11:27.936Z,7.30
2018-05-23T08:13:55.320Z,6.73
2018-05-23T08:16:22.743Z,6.43
2018-05-23T08:18:50.120Z,5.73
2018-05-23T08:21:17.508Z,5.80
2018-05-23T08:23:44.892Z,6.00
2018-05-23T08:26:12.293Z,6.87
2018-05-23T08:28:39.667Z,6.47
2018-05-23T08:31:07.056Z,6.50
2018-05-23T08:33:34.460Z,6.60
2018-05-23T08:36:01.848Z,6.57
2018-05-23T08:38:29.228Z,6.10
2018-05-23T08:40:56.611Z,5.97
2018-05-23T08:43:24.016Z,6.50
2018-05-23T08:45:51.414Z,6.37
2018-05-23T08:48:18.805Z,5.83
2018-05-23T08:50:46.205Z,5.37
2018-05-23T08:53:13.589Z,6.53
2018-05-23T08:55:40.972Z,6.20
2018-05-23T08:58:08.352Z,6.23
2018-05-23T09:00:35.737Z,6.17
2018-05-23T09:03:03.150Z,6.00
2018-05-23T09:05:30.645Z,6.30
2018-05-23T09:07:58.032Z,6.70
2018-05-23T09:10:25.411Z,5.90
2018-05-23T09:12:52.807Z,5.93
2018-05-23T09:15:20.184Z,5.07
2018-05-23T09:17:47.585Z,5.13
2018-05-23T09:20:14.963Z,5.60
2018-05-23T09:22:42.361Z,4.90
2018-05-23T09:25:09.744Z,5.73
2018-05-23T09:27:37.140Z,4.87
2018-05-23T09:30:04.561Z,5.10
2018-05-23T09:32:31.945Z,5.00
2018-05-23T09:34:59.330Z,5.73
2018-05-23T09:37:26.728Z,3.87
2018-05-23T09:39:54.108Z,5.30
2018-05-23T09:42:21.499Z,5.37
2018-05-23T09:44:48.889Z,4.60
2018-05-23T09:47:16.284Z,5.23
2018-05-23T09:49:43.670Z,4.80
2018-05-23T09:52:11.072Z,4.27
2018-05-23T09:54:38.452Z,4.13
2018-05-23T09:57:05.860Z,4.40
2018-05-23T09:59:33.242Z,3.87
2018-05-23T10:02:00.636Z,3.43
2018-05-23T10:04:28.030Z,4.00
2018-05-23T10:06:55.419Z,4.70
2018-05-23T10:09:22.803Z,5.13
2018-05-23T10:11:50.204Z,4.10
2018-05-23T10:14:17.574Z,4.17
2018-05-23T10:16:44.963Z,4.60
2018-05-23T10:19:12.343Z,4.47
2018-05-23T10:21:39.734Z,4.33
2018-05-23T10:24:07.139Z,4.13
2018-05-23T10:26:34.526Z,4.60
2018-05-23T10:29:01.922Z,4.20
2018-05-23T10:31:29.314Z,4.47
2018-05-23T10:33:56.711Z,4.20
2018-05-23T10:36:24.105Z,4.10
2018-05-23T10:38:51.476Z,4.63
2018-05-23T10:41:18.912Z,4.40
2018-05-23T10:43:46.291Z,6.10
2018-05-23T10:46:13.688Z,4.43
2018-05-23T10:48:41.068Z,4.63
2018-05-23T10:51:08.463Z,4.93
2018-05-23T10:53:35.843Z,4.10
2018-05-23T10:56:03.237Z,4.47
2018-05-23T10:58:30.622Z,4.87
2018-05-23T11:00:58.026Z,4.80
2018-05-23T11:03:25.395Z,4.73
2018-05-23T11:05:52.839Z,5.47
2018-05-23T11:08:20.162Z,4.60
2018-05-23T11:10:47.538Z,4.93
2018-05-23T11:13:14.925Z,4.30
2018-05-23T11:15:42.309Z,4.47
2018-05-23T11:18:10.516Z,4.67
2018-05-23T11:20:37.897Z,4.30
2018-05-23T11:23:05.309Z,4.37
2018-05-23T11:25:32.723Z,4.23
2018-05-23T11:28:00.152Z,4.90
2018-05-23T11:30:27.547Z,4.80
2018-05-23T11:32:54.960Z,5.07
2018-05-23T11:35:22.348Z,4.67
2018-05-23T11:37:49.732Z,4.47
2018-05-23T11:40:17.107Z,5.03
2018-05-23T11:42:44.497Z,5.10
2018-05-23T11:45:11.891Z,5.00
2018-05-23T11:47:39.277Z,5.50
2018-05-23T11:50:06.668Z,4.50
2018-05-23T11:52:34.081Z,5.20
2018-05-23T11:55:01.453Z,5.50
2018-05-23T11:57:28.852Z,5.47
2018-05-23T11:59:56.242Z,5.10
2018-05-23T12:02:23.636Z,5.07
2018-05-23T12:04:51.024Z,5.20
2018-05-23T12:07:18.428Z,4.27
2018-05-23T12:09:45.806Z,4.90
2018-05-23T12:12:13.196Z,4.87
2018-05-23T12:14:40.575Z,4.70
2018-05-23T12:17:07.966Z,4.60
2018-05-23T12:19:35.344Z,5.53
2018-05-23T12:22:02.733Z,5.10
2018-05-23T12:24:30.115Z,5.30
2018-05-23T12:26:57.504Z,4.20
2018-05-23T12:29:24.888Z,5.07
2018-05-23T12:31:52.292Z,4.90
2018-05-23T12:34:19.677Z,4.50
2018-05-23T12:36:47.107Z,5.00
2018-05-23T12:39:14.489Z,5.20
2018-05-23T12:41:41.904Z,4.40
2018-05-23T12:44:09.299Z,4.53
2018-05-23T12:46:36.698Z,5.17
2018-05-23T12:49:04.077Z,3.97
2018-05-23T12:51:31.464Z,4.63
2018-05-23T12:53:58.849Z,4.33
2018-05-23T12:56:26.236Z,4.37
2018-05-23T12:58:53.619Z,4.10
2018-05-23T13:01:21.005Z,4.40
2018-05-23T13:03:48.383Z,4.00
2018-05-23T13:06:15.778Z,4.20
2018-05-23T13:08:43.163Z,4.00
2018-05-23T13:11:10.541Z,3.87
2018-05-23T13:13:37.936Z,5.00
2018-05-23T13:16:05.325Z,3.50
2018-05-23T13:18:32.715Z,4.27
2018-05-23T13:21:00.096Z,3.90
2018-05-23T13:23:27.488Z,3.97
2018-05-23T13:25:54.931Z,4.07
2018-05-23T13:28:22.261Z,3.60
2018-05-23T13:30:49.658Z,3.90
2018-05-23T13:33:17.064Z,3.70
2018-05-23T13:35:44.456Z,3.80
2018-05-23T13:38:11.842Z,4.10
2018-05-23T13:40:39.220Z,4.50
2018-05-23T13:43:06.603Z,4.20
2018-05-23T13:45:34.975Z,4.33
2018-05-23T13:48:02.356Z,3.97
2018-05-23T13:50:29.737Z,3.87
2018-05-23T13:52:57.126Z,4.20
2018-05-23T13:55:24.508Z,3.80
2018-05-23T13:57:51.919Z,4.00
2018-05-23T14:00:19.313Z,4.03
2018-05-23T14:02:46.708Z,3.57
2018-05-23T14:05:14.084Z,4.10
2018-05-23T14:07:42.290Z,5.10
2018-05-23T14:10:09.687Z,4.00
2018-05-23T14:12:37.093Z,3.57
2018-05-23T14:15:04.475Z,4.23
2018-05-23T14:17:32.766Z,4.23
2018-05-23T14:20:00.159Z,3.60
2018-05-23T14:22:27.551Z,4.70
2018-05-23T14:24:54.953Z,3.77
2018-05-23T14:27:22.363Z,3.93
2018-05-23T14:29:49.764Z,3.70
2018-05-23T14:32:17.155Z,4.63
2018-05-23T14:34:44.532Z,4.03
2018-05-23T14:37:11.915Z,5.03
2018-05-23T14:39:39.301Z,4.33
2018-05-23T14:42:06.687Z,4.10
2018-05-23T14:44:34.071Z,3.33
2018-05-23T14:47:01.467Z,3.30
2018-05-23T14:49:28.845Z,4.00
2018-05-23T14:51:56.252Z,4.87
2018-05-23T14:54:23.635Z,3.33
2018-05-23T14:56:51.024Z,3.90
2018-05-23T14:59:18.412Z,3.83
2018-05-23T15:01:45.796Z,3.87
2018-05-23T15:04:13.197Z,3.47
2018-05-23T15:06:40.594Z,2.80
2018-05-23T15:09:07.987Z,3.00
2018-05-23T15:11:35.368Z,3.40
2018-05-23T15:14:02.763Z,3.20
2018-05-23T15:16:30.152Z,2.70
2018-05-23T15:18:57.544Z,2.77
2018-05-23T15:21:24.950Z,3.27
2018-05-23T15:23:52.334Z,3.00
2018-05-23T15:26:19.755Z,3.07
2018-05-23T15:28:47.146Z,3.80
2018-05-23T15:31:14.535Z,2.87
2018-05-23T15:33:41.911Z,3.57
2018-05-23T15:36:09.312Z,3.10
2018-05-23T15:38:36.691Z,3.90
2018-05-23T15:41:04.076Z,2.90
2018-05-23T15:43:31.463Z,3.10
2018-05-23T15:45:58.843Z,3.47
2018-05-23T15:48:26.228Z,3.80
2018-05-23T15:50:54.499Z,3.73
2018-05-23T15:53:21.896Z,3.93
2018-05-23T15:55:49.268Z,3.33
2018-05-23T15:58:16.671Z,4.53
2018-05-23T16:00:44.047Z,3.90
2018-05-23T16:03:11.432Z,4.37
2018-05-23T16:05:38.819Z,3.73
2018-05-23T16:08:06.223Z,6.37
2018-05-23T16:10:33.600Z,4.17
2018-05-23T16:13:01.004Z,3.80
2018-05-23T16:15:28.374Z,4.10
2018-05-23T16:17:55.766Z,4.77
2018-05-23T16:20:23.144Z,4.80
2018-05-23T16:22:50.541Z,4.80
2018-05-23T16:25:17.922Z,4.60
2018-05-23T16:27:45.334Z,5.30
2018-05-23T16:30:12.719Z,4.83
2018-05-23T16:32:40.117Z,5.00
2018-05-23T16:35:07.490Z,4.90
2018-05-23T16:37:34.874Z,4.80
2018-05-23T16:40:02.253Z,5.70
2018-05-23T16:42:29.651Z,5.13
2018-05-23T16:44:57.033Z,5.80
2018-05-23T16:47:24.420Z,4.83
2018-05-23T16:49:51.812Z,5.30
2018-05-23T16:52:19.225Z,6.30
2018-05-23T16:54:46.599Z,5.87
2018-05-23T16:57:13.996Z,5.50
2018-05-23T16:59:41.384Z,6.30
2018-05-23T17:02:09.400Z,6.17
2018-05-23T17:04:36.793Z,5.53
2018-05-23T17:07:04.530Z,6.30
2018-05-23T17:09:32.655Z,5.40
2018-05-23T17:12:00.032Z,5.83
2018-05-23T17:14:27.437Z,6.03
2018-05-23T17:16:54.812Z,6.10
2018-05-23T17:19:22.219Z,7.57
2018-05-23T17:21:49.601Z,5.73
2018-05-23T17:24:16.996Z,6.30
2018-05-23T17:26:44.384Z,6.47
2018-05-23T17:29:11.781Z,6.83
2018-05-23T17:31:39.147Z,6.77
2018-05-23T17:34:06.545Z,6.53
2018-05-23T17:36:34.236Z,6.00
2018-05-23T17:39:01.620Z,6.37
2018-05-23T17:41:29.023Z,7.33
2018-05-23T17:43:56.426Z,7.10
2018-05-23T17:46:23.838Z,6.33
2018-05-23T17:48:51.235Z,6.00
2018-05-23T17:51:18.629Z,6.10
2018-05-23T17:53:46.008Z,5.50
2018-05-23T17:56:13.412Z,5.30
2018-05-23T17:58:40.810Z,5.67
2018-05-23T18:01:08.213Z,5.13
2018-05-23T18:03:35.583Z,6.60
2018-05-23T18:06:03.171Z,6.13
2018-05-23T18:08:30.364Z,6.33
2018-05-23T18:10:57.756Z,6.23
2018-05-23T18:13:25.145Z,6.27
2018-05-23T18:15:52.552Z,6.67
2018-05-23T18:18:19.963Z,6.27
2018-05-23T18:20:47.352Z,7.20
2018-05-23T18:23:14.737Z,6.80
2018-05-23T18:25:42.129Z,6.90
2018-05-23T18:28:09.524Z,6.13
2018-05-23T18:30:36.915Z,7.10
2018-05-23T18:33:04.297Z,6.50
2018-05-23T18:35:31.681Z,6.70
2018-05-23T18:37:59.066Z,7.60
2018-05-23T18:40:26.464Z,7.77
2018-05-23T18:42:53.851Z,6.63
2018-05-23T18:45:23.247Z,7.00
2018-05-23T18:47:52.546Z,7.53
2018-05-23T18:50:21.604Z,7.70
2018-05-23T18:52:50.068Z,7.40
2018-05-23T18:55:20.631Z,7.40
2018-05-23T18:57:58.138Z,7.80
2018-05-23T19:00:35.754Z,6.90
2018-05-23T19:03:15.867Z,6.93
2018-05-23T19:05:44.467Z,6.13
2018-05-23T19:08:14.989Z,6.57
2018-05-23T19:10:43.046Z,6.90
2018-05-23T19:13:12.748Z,7.30
2018-05-23T19:15:42.673Z,6.57
2018-05-23T19:18:10.567Z,7.40
2018-05-23T19:20:38.408Z,6.63
2018-05-23T19:23:06.599Z,7.87
2018-05-23T19:25:34.269Z,7.37
2018-05-23T19:28:29.851Z,6.40
2018-05-23T19:30:58.529Z,6.57
2018-05-23T19:33:29.381Z,7.70
2018-05-23T19:35:57.913Z,7.83
2018-05-23T19:38:29.228Z,6.60
2018-05-23T19:40:59.273Z,7.30
2018-05-23T19:43:27.770Z,6.73
2018-05-23T19:45:56.209Z,5.87
2018-05-23T19:48:25.942Z,6.20
2018-05-23T19:50:54.483Z,6.37
2018-05-23T19:53:24.174Z,5.97
2018-05-23T19:55:51.740Z,5.70
2018-05-23T19:58:19.178Z,4.70
2018-05-23T20:00:49.507Z,5.73
2018-05-23T20:03:17.053Z,5.63
2018-05-23T20:05:50.054Z,6.73
2018-05-23T20:08:18.235Z,6.80
2018-05-23T20:10:46.012Z,7.50
2018-05-23T20:13:13.795Z,6.33
2018-05-23T20:15:43.432Z,6.40
2018-05-23T20:18:12.583Z,6.10
2018-05-23T20:20:40.913Z,6.30
2018-05-23T20:23:09.780Z,5.60
2018-05-23T20:25:39.360Z,6.17
2018-05-23T20:28:12.249Z,5.10
2018-05-23T20:30:39.701Z,5.70
2018-05-23T20:33:09.023Z,5.73
2018-05-23T20:35:37.785Z,5.80
2018-05-23T20:38:05.738Z,5.80
2018-05-23T20:40:35.760Z,5.47
2018-05-23T20:43:04.744Z,5.03
2018-05-23T20:45:34.643Z,4.97
2018-05-23T20:48:04.389Z,5.70
2018-05-23T20:50:34.952Z,5.00
2018-05-23T20:53:02.990Z,6.30
2018-05-23T20:55:31.299Z,5.57
2018-05-23T20:58:02.645Z,5.30
2018-05-23T21:00:30.055Z,5.20
2018-05-23T21:02:58.582Z,5.90
2018-05-23T21:05:28.400Z,5.53
2018-05-23T21:07:55.776Z,5.10
2018-05-23T21:10:24.175Z,5.50
2018-05-23T21:12:53.122Z,5.87
2018-05-23T21:15:20.633Z,5.87
2018-05-23T21:17:48.759Z,6.03
2018-05-23T21:20:18.826Z,5.60
2018-05-23T21:22:46.807Z,5.57
2018-05-23T21:25:14.939Z,5.20
2018-05-23T21:27:43.389Z,5.90
2018-05-23T21:30:11.060Z,5.87
2018-05-23T21:32:39.085Z,5.80
2018-05-23T21:35:07.909Z,6.70
2018-05-23T21:37:35.643Z,6.80
2018-05-23T21:40:03.952Z,6.00
2018-05-23T21:42:31.645Z,6.90
2018-05-23T21:45:00.273Z,6.43
2018-05-23T21:47:30.619Z,5.70
2018-05-23T21:49:59.335Z,7.80
2018-05-23T21:52:27.173Z,6.90
2018-05-23T21:55:03.340Z,7.23
2018-05-23T21:57:34.657Z,6.30
2018-05-23T22:00:02.265Z,7.70
2018-05-23T22:02:30.446Z,7.60
2018-05-23T22:04:58.619Z,7.60
2018-05-23T22:07:27.001Z,7.73
2018-05-23T22:09:55.594Z,8.30
2018-05-23T22:12:23.384Z,8.23
2018-05-23T22:14:51.396Z,8.07
2018-05-23T22:17:20.800Z,8.10
2018-05-23T22:20:07.840Z,8.33
2018-05-23T22:22:43.413Z,8.77
2018-05-23T22:25:22.358Z,7.83
2018-05-23T22:27:54.003Z,8.00
2018-05-23T22:30:21.548Z,7.20
2018-05-23T22:32:53.873Z,7.60
2018-05-23T22:35:28.376Z,8.03
2018-05-23T22:37:55.757Z,7.50
2018-05-23T22:40:23.153Z,7.50
2018-05-23T22:42:50.546Z,8.40
2018-05-23T22:45:18.103Z,7.77
2018-05-23T22:47:45.469Z,8.23
2018-05-23T22:50:12.880Z,8.40
2018-05-23T22:52:40.263Z,7.97
2018-05-23T22:55:07.672Z,7.20
2018-05-23T22:57:35.103Z,6.80
2018-05-23T23:00:02.568Z,7.80
2018-05-23T23:02:29.945Z,7.80
2018-05-23T23:04:58.001Z,8.30
2018-05-23T23:07:25.389Z,7.77
2018-05-23T23:09:53.856Z,8.07
2018-05-23T23:12:21.245Z,8.73
2018-05-23T23:14:48.644Z,8.70
2018-05-23T23:17:16.108Z,8.50
2018-05-23T23:19:43.499Z,9.77
2018-05-23T23:22:10.873Z,8.47
2018-05-23T23:24:38.295Z,8.90
2018-05-23T23:27:05.690Z,8.23
2018-05-23T23:29:33.112Z,7.60
2018-05-23T23:32:00.493Z,9.20
2018-05-23T23:34:27.880Z,8.00
2018-05-23T23:36:55.270Z,7.87
2018-05-23T23:39:22.664Z,6.87
2018-05-23T23:41:50.866Z,8.33
2018-05-23T23:44:18.278Z,8.20
2018-05-23T23:46:45.684Z,8.50
2018-05-23T23:49:13.101Z,7.60
2018-05-23T23:51:40.734Z,6.77
2018-05-23T23:54:07.961Z,6.90
2018-05-23T23:56:35.284Z,7.17
2018-05-23T23:59:02.694Z,7.70
